Hudsonville, MI

1:50 AM EST on December 28, 2014 (GMT -0500)
Fremont | Change Station
CLOSE
Current Station
Airport
Location: Fremont,
Elevation: 771 ft
Nearby Weather Stations

Elev 771 ft 43.44 °N, 85.99 °W | Updated 18 minutes ago

Snow
Snow
33 °F
Feels Like 26 °F
N
8
Wind Variable Wind from WNW

Today
High -- | Low -- °F
--% Chance of Precip.
Yesterday
High -- | Low -- °F
Precip. -- in
8:13 AM 5:16 PM
Waxing Crescent, 44% visible
Pressure 30.00 in
Visibility 5.0 miles
Clouds Mostly Cloudy 700 ft
Overcast 1300 ft
Windchill 26 °F
Dew Point 32 °F
Humidity 99%
Rainfall 0.00 in
Snow Depth Not available.
UV 0 out of 12
Pollen .10 out of 12
Air Quality Not available.
Flu Activity Not available.
METAR KFFX 280632Z AUTO 30007KT 5SM -SN BKN007 OVC013 00/00 A3000 RMK AO2 T00040002

More Conditions Fewer Conditions

Pressure 30.00 in
Visibility 5.0 miles
Clouds Mostly Cloudy 700 ft
Overcast 1300 ft
Windchill 26 °F
Dew Point 32 °F
Humidity 99%
Rainfall 0.00 in
Snow Depth Not available.
UV 0 out of 12
Pollen .10 out of 12
Air Quality Not available.
Flu Activity Not available.
METAR KFFX 280632Z AUTO 30007KT 5SM -SN BKN007 OVC013 00/00 A3000 RMK AO2 T00040002

More Conditions Fewer Conditions

10-Day Weather Forecast

Almanac

Astronomy

Dec. 28, 2014 Rise Set
Actual Time
Civil Twilight
Nautical Twilight
Astronomical Twilight
Moon
Length of Visible Light
Length of Day
Tomorrow will be .
, % of the Moon is Illuminated

Today's Extremes

State Highs State Lows

Community

WunderPhotos

Upload Photos

1,781,208 photos uploaded!

WunderBlogs® & News

Nearby

Air Quality

  Air Quality AQ Index Pollutant
Not available.

Snow Depth

Station Depth Elevation

Earthquake Activity

City Distance Mag. Time & Date
Minimum magnitude displayed is 2.5.

Coastal Water Temperatures

Place Temperature

Nearby Weather Stations